Los Angeles, California
Traffic Map
Current Weather Conditions
Los Angeles, California
Clear
Clear
85°
Feels Like: 85°
Wind Chill: 85° Ceiling: Unl
Heat Index: 85° Visibility: 10mi
Dew Point: 56° Wind: 0mph
Humidity: 37% Direction: ° ()
Pressure: 29.81in Gusts: 0mph
Raw Report DataKCQT 301947Z AUTO 00000KT 10SM CLR 29/13 A2981 RMK AO2 SLP093 T02940133
Traffic Incident Summary
Active as of:
Severity:
Category:
InformationThere was an issue retrieving the traffic information for this location. Please try a different location or try again shortly.
Advertisements
Track Severe Weather on mobile